sensor_id;sensor_type;location;lat;lon;timestamp;temperature;humidity
18339;DHT22;9295;44.484;11.240;2023-04-24T00:00:40;17.30;99.90
18339;DHT22;9295;44.484;11.240;2023-04-24T00:03:09;17.30;99.90
18339;DHT22;9295;44.484;11.240;2023-04-24T00:05:38;17.30;99.90
18339;DHT22;9295;44.484;11.240;2023-04-24T00:08:08;17.30;99.90
18339;DHT22;9295;44.484;11.240;2023-04-24T00:10:36;17.30;99.90
18339;DHT22;9295;44.484;11.240;2023-04-24T00:13:06;17.30;99.90
18339;DHT22;9295;44.484;11.240;2023-04-24T00:15:34;17.30;99.90
18339;DHT22;9295;44.484;11.240;2023-04-24T00:18:03;17.30;99.90
18339;DHT22;9295;44.484;11.240;2023-04-24T00:20:31;17.40;99.90
18339;DHT22;9295;44.484;11.240;2023-04-24T00:23:00;17.40;99.90
18339;DHT22;9295;44.484;11.240;2023-04-24T00:25:28;17.40;99.90
18339;DHT22;9295;44.484;11.240;2023-04-24T00:27:57;17.40;99.90
18339;DHT22;9295;44.484;11.240;2023-04-24T00:30:27;17.40;99.90
18339;DHT22;9295;44.484;11.240;2023-04-24T00:32:55;17.40;99.90
18339;DHT22;9295;44.484;11.240;2023-04-24T00:35:24;17.40;99.90
18339;DHT22;9295;44.484;11.240;2023-04-24T00:37:52;17.40;99.90
18339;DHT22;9295;44.484;11.240;2023-04-24T00:40:20;17.40;99.90
18339;DHT22;9295;44.484;11.240;2023-04-24T00:42:49;17.40;99.90
18339;DHT22;9295;44.484;11.240;2023-04-24T00:45:17;17.50;99.90
18339;DHT22;9295;44.484;11.240;2023-04-24T00:47:48;17.50;99.90
18339;DHT22;9295;44.484;11.240;2023-04-24T00:50:18;17.50;99.90
18339;DHT22;9295;44.484;11.240;2023-04-24T00:52:46;17.60;99.90
18339;DHT22;9295;44.484;11.240;2023-04-24T00:55:15;17.60;99.90
18339;DHT22;9295;44.484;11.240;2023-04-24T00:57:43;17.60;99.90
18339;DHT22;9295;44.484;11.240;2023-04-24T01:00:13;17.60;99.90
18339;DHT22;9295;44.484;11.240;2023-04-24T01:02:43;17.60;99.90
18339;DHT22;9295;44.484;11.240;2023-04-24T01:05:14;17.60;99.90
18339;DHT22;9295;44.484;11.240;2023-04-24T01:07:45;17.60;99.90
18339;DHT22;9295;44.484;11.240;2023-04-24T01:10:16;17.60;99.90
18339;DHT22;9295;44.484;11.240;2023-04-24T01:12:46;17.60;99.90
18339;DHT22;9295;44.484;11.240;2023-04-24T01:15:15;17.60;99.90
18339;DHT22;9295;44.484;11.240;2023-04-24T01:17:43;17.50;99.90
18339;DHT22;9295;44.484;11.240;2023-04-24T01:20:15;17.50;99.90
18339;DHT22;9295;44.484;11.240;2023-04-24T01:22:45;17.60;99.90
18339;DHT22;9295;44.484;11.240;2023-04-24T01:25:14;17.60;99.90
18339;DHT22;9295;44.484;11.240;2023-04-24T01:27:43;17.60;99.90
18339;DHT22;9295;44.484;11.240;2023-04-24T01:30:13;17.70;99.90
18339;DHT22;9295;44.484;11.240;2023-04-24T01:32:42;17.70;99.90
18339;DHT22;9295;44.484;11.240;2023-04-24T01:35:21;17.70;99.90
18339;DHT22;9295;44.484;11.240;2023-04-24T01:37:51;17.70;99.90
18339;DHT22;9295;44.484;11.240;2023-04-24T01:40:19;17.70;99.90
18339;DHT22;9295;44.484;11.240;2023-04-24T01:42:48;17.70;99.90
18339;DHT22;9295;44.484;11.240;2023-04-24T01:45:16;17.70;99.90
18339;DHT22;9295;44.484;11.240;2023-04-24T01:47:45;17.70;99.90
18339;DHT22;9295;44.484;11.240;2023-04-24T01:50:14;17.80;99.90
18339;DHT22;9295;44.484;11.240;2023-04-24T01:52:42;17.80;99.90
18339;DHT22;9295;44.484;11.240;2023-04-24T01:55:12;17.80;99.90
18339;DHT22;9295;44.484;11.240;2023-04-24T01:57:40;17.80;99.90
18339;DHT22;9295;44.484;11.240;2023-04-24T02:00:10;17.80;99.90
18339;DHT22;9295;44.484;11.240;2023-04-24T02:02:40;17.80;99.90
18339;DHT22;9295;44.484;11.240;2023-04-24T02:05:11;17.80;99.90
18339;DHT22;9295;44.484;11.240;2023-04-24T02:07:40;17.80;99.90
18339;DHT22;9295;44.484;11.240;2023-04-24T02:10:09;17.80;99.90
18339;DHT22;9295;44.484;11.240;2023-04-24T02:12:43;17.80;99.90
18339;DHT22;9295;44.484;11.240;2023-04-24T02:15:12;17.80;99.90
18339;DHT22;9295;44.484;11.240;2023-04-24T02:17:40;17.70;99.90
18339;DHT22;9295;44.484;11.240;2023-04-24T02:20:08;17.70;99.90
18339;DHT22;9295;44.484;11.240;2023-04-24T02:22:38;17.70;99.90
18339;DHT22;9295;44.484;11.240;2023-04-24T02:25:07;17.70;99.90
18339;DHT22;9295;44.484;11.240;2023-04-24T02:27:35;17.60;99.90
18339;DHT22;9295;44.484;11.240;2023-04-24T02:30:08;17.60;99.90
18339;DHT22;9295;44.484;11.240;2023-04-24T02:32:36;17.60;99.90
18339;DHT22;9295;44.484;11.240;2023-04-24T02:35:06;17.60;99.90
18339;DHT22;9295;44.484;11.240;2023-04-24T02:37:35;17.60;99.90
18339;DHT22;9295;44.484;11.240;2023-04-24T02:40:04;17.70;99.90
18339;DHT22;9295;44.484;11.240;2023-04-24T02:42:33;17.70;99.90
18339;DHT22;9295;44.484;11.240;2023-04-24T02:45:02;17.70;99.90
18339;DHT22;9295;44.484;11.240;2023-04-24T02:47:32;17.70;99.90
18339;DHT22;9295;44.484;11.240;2023-04-24T02:50:01;17.70;99.90
18339;DHT22;9295;44.484;11.240;2023-04-24T02:52:29;17.70;99.90
18339;DHT22;9295;44.484;11.240;2023-04-24T02:54:58;17.70;99.90
18339;DHT22;9295;44.484;11.240;2023-04-24T02:57:26;17.70;99.90
18339;DHT22;9295;44.484;11.240;2023-04-24T02:59:55;17.70;99.90
18339;DHT22;9295;44.484;11.240;2023-04-24T03:02:23;17.70;99.90
18339;DHT22;9295;44.484;11.240;2023-04-24T03:04:53;17.70;99.90
18339;DHT22;9295;44.484;11.240;2023-04-24T03:07:22;17.60;99.90
18339;DHT22;9295;44.484;11.240;2023-04-24T03:09:51;17.60;99.90
18339;DHT22;9295;44.484;11.240;2023-04-24T03:12:19;17.60;99.90
18339;DHT22;9295;44.484;11.240;2023-04-24T03:14:47;17.60;99.90
18339;DHT22;9295;44.484;11.240;2023-04-24T03:17:16;17.60;99.90
18339;DHT22;9295;44.484;11.240;2023-04-24T03:19:44;17.60;99.90
18339;DHT22;9295;44.484;11.240;2023-04-24T03:22:14;17.50;99.90
18339;DHT22;9295;44.484;11.240;2023-04-24T03:24:42;17.50;99.90
18339;DHT22;9295;44.484;11.240;2023-04-24T03:27:14;17.40;99.90
18339;DHT22;9295;44.484;11.240;2023-04-24T03:30:04;17.30;99.90
18339;DHT22;9295;44.484;11.240;2023-04-24T03:32:50;17.20;99.90
18339;DHT22;9295;44.484;11.240;2023-04-24T03:35:23;17.20;99.90
18339;DHT22;9295;44.484;11.240;2023-04-24T03:37:54;17.20;99.90
18339;DHT22;9295;44.484;11.240;2023-04-24T03:40:54;17.20;99.90
18339;DHT22;9295;44.484;11.240;2023-04-24T03:43:43;17.20;99.90
18339;DHT22;9295;44.484;11.240;2023-04-24T03:46:11;17.10;99.90
18339;DHT22;9295;44.484;11.240;2023-04-24T03:48:45;16.90;99.90
18339;DHT22;9295;44.484;11.240;2023-04-24T03:51:16;16.80;99.90
18339;DHT22;9295;44.484;11.240;2023-04-24T03:53:49;16.60;99.90
18339;DHT22;9295;44.484;11.240;2023-04-24T03:56:20;16.50;99.90
18339;DHT22;9295;44.484;11.240;2023-04-24T03:58:49;16.50;99.90
18339;DHT22;9295;44.484;11.240;2023-04-24T04:01:17;16.40;99.90
18339;DHT22;9295;44.484;11.240;2023-04-24T04:04:05;16.30;99.90
18339;DHT22;9295;44.484;11.240;2023-04-24T04:06:36;16.20;99.90
18339;DHT22;9295;44.484;11.240;2023-04-24T04:09:07;16.10;99.90
18339;DHT22;9295;44.484;11.240;2023-04-24T04:11:36;16.00;99.90
18339;DHT22;9295;44.484;11.240;2023-04-24T04:14:05;16.00;99.90
18339;DHT22;9295;44.484;11.240;2023-04-24T04:16:35;15.90;99.90
18339;DHT22;9295;44.484;11.240;2023-04-24T04:19:05;15.90;99.90
18339;DHT22;9295;44.484;11.240;2023-04-24T04:21:34;15.90;99.90
18339;DHT22;9295;44.484;11.240;2023-04-24T04:24:12;15.80;99.90
18339;DHT22;9295;44.484;11.240;2023-04-24T04:26:44;15.80;99.90
18339;DHT22;9295;44.484;11.240;2023-04-24T04:29:22;15.80;99.90
18339;DHT22;9295;44.484;11.240;2023-04-24T04:31:51;15.80;99.90
18339;DHT22;9295;44.484;11.240;2023-04-24T04:34:21;15.80;99.90
18339;DHT22;9295;44.484;11.240;2023-04-24T04:36:50;15.80;99.90
18339;DHT22;9295;44.484;11.240;2023-04-24T04:39:41;15.80;99.90
18339;DHT22;9295;44.484;11.240;2023-04-24T04:42:16;15.80;99.90
18339;DHT22;9295;44.484;11.240;2023-04-24T04:44:46;15.80;99.90
18339;DHT22;9295;44.484;11.240;2023-04-24T04:47:20;15.80;99.90
18339;DHT22;9295;44.484;11.240;2023-04-24T04:49:51;15.80;99.90
18339;DHT22;9295;44.484;11.240;2023-04-24T04:52:23;15.80;99.90
18339;DHT22;9295;44.484;11.240;2023-04-24T04:55:08;15.70;99.90
18339;DHT22;9295;44.484;11.240;2023-04-24T04:57:54;15.70;99.90
18339;DHT22;9295;44.484;11.240;2023-04-24T05:00:25;15.80;99.90
18339;DHT22;9295;44.484;11.240;2023-04-24T05:02:54;15.80;99.90
18339;DHT22;9295;44.484;11.240;2023-04-24T05:05:39;15.80;99.90
18339;DHT22;9295;44.484;11.240;2023-04-24T05:08:11;15.80;99.90
18339;DHT22;9295;44.484;11.240;2023-04-24T05:10:54;15.80;99.90
18339;DHT22;9295;44.484;11.240;2023-04-24T05:13:25;15.80;99.90
18339;DHT22;9295;44.484;11.240;2023-04-24T05:16:11;15.80;99.90
18339;DHT22;9295;44.484;11.240;2023-04-24T05:18:40;15.80;99.90
18339;DHT22;9295;44.484;11.240;2023-04-24T05:21:10;15.80;99.90
18339;DHT22;9295;44.484;11.240;2023-04-24T05:23:41;15.80;99.90
18339;DHT22;9295;44.484;11.240;2023-04-24T05:26:13;15.90;99.90
18339;DHT22;9295;44.484;11.240;2023-04-24T05:28:41;15.90;99.90
18339;DHT22;9295;44.484;11.240;2023-04-24T05:31:11;15.90;99.90
18339;DHT22;9295;44.484;11.240;2023-04-24T05:33:40;15.80;99.90
18339;DHT22;9295;44.484;11.240;2023-04-24T05:36:09;15.90;99.90
18339;DHT22;9295;44.484;11.240;2023-04-24T05:38:37;15.90;99.90
18339;DHT22;9295;44.484;11.240;2023-04-24T05:41:05;15.90;99.90
18339;DHT22;9295;44.484;11.240;2023-04-24T05:43:35;15.90;99.90
18339;DHT22;9295;44.484;11.240;2023-04-24T05:46:04;15.90;99.90
18339;DHT22;9295;44.484;11.240;2023-04-24T05:48:33;15.90;99.90
18339;DHT22;9295;44.484;11.240;2023-04-24T05:51:03;15.90;99.90
18339;DHT22;9295;44.484;11.240;2023-04-24T05:53:31;15.90;99.90
18339;DHT22;9295;44.484;11.240;2023-04-24T05:56:00;15.90;99.90
18339;DHT22;9295;44.484;11.240;2023-04-24T05:58:29;15.90;99.90
18339;DHT22;9295;44.484;11.240;2023-04-24T06:01:00;16.00;99.90
18339;DHT22;9295;44.484;11.240;2023-04-24T06:03:30;16.00;99.90
18339;DHT22;9295;44.484;11.240;2023-04-24T06:05:58;16.00;99.90
18339;DHT22;9295;44.484;11.240;2023-04-24T06:08:27;16.00;99.90
18339;DHT22;9295;44.484;11.240;2023-04-24T06:10:56;16.10;99.90
18339;DHT22;9295;44.484;11.240;2023-04-24T06:13:25;16.10;99.90
18339;DHT22;9295;44.484;11.240;2023-04-24T06:16:13;16.20;99.90
18339;DHT22;9295;44.484;11.240;2023-04-24T06:18:46;16.20;99.90
18339;DHT22;9295;44.484;11.240;2023-04-24T06:21:16;16.20;99.90
18339;DHT22;9295;44.484;11.240;2023-04-24T06:23:44;16.30;99.90
18339;DHT22;9295;44.484;11.240;2023-04-24T06:26:14;16.30;99.90
18339;DHT22;9295;44.484;11.240;2023-04-24T06:28:43;16.40;99.90
18339;DHT22;9295;44.484;11.240;2023-04-24T06:31:13;16.50;99.90
18339;DHT22;9295;44.484;11.240;2023-04-24T06:33:41;16.50;99.90
18339;DHT22;9295;44.484;11.240;2023-04-24T06:36:09;16.70;99.90
18339;DHT22;9295;44.484;11.240;2023-04-24T06:38:55;16.90;99.90
18339;DHT22;9295;44.484;11.240;2023-04-24T06:41:24;17.10;99.90
18339;DHT22;9295;44.484;11.240;2023-04-24T06:43:52;17.20;99.90
18339;DHT22;9295;44.484;11.240;2023-04-24T06:46:23;17.30;99.90
18339;DHT22;9295;44.484;11.240;2023-04-24T06:48:53;17.60;99.90
18339;DHT22;9295;44.484;11.240;2023-04-24T06:51:23;18.20;99.90
18339;DHT22;9295;44.484;11.240;2023-04-24T06:53:52;18.80;99.90
18339;DHT22;9295;44.484;11.240;2023-04-24T06:56:20;19.60;99.90
18339;DHT22;9295;44.484;11.240;2023-04-24T06:58:49;20.50;99.90
18339;DHT22;9295;44.484;11.240;2023-04-24T07:01:18;21.10;99.90
18339;DHT22;9295;44.484;11.240;2023-04-24T07:03:47;21.30;99.90
18339;DHT22;9295;44.484;11.240;2023-04-24T07:06:16;21.40;99.90
18339;DHT22;9295;44.484;11.240;2023-04-24T07:08:46;21.50;99.90
18339;DHT22;9295;44.484;11.240;2023-04-24T07:11:14;21.70;99.90
18339;DHT22;9295;44.484;11.240;2023-04-24T07:13:42;21.60;99.90
18339;DHT22;9295;44.484;11.240;2023-04-24T07:16:11;21.40;99.90
18339;DHT22;9295;44.484;11.240;2023-04-24T07:18:39;20.70;99.90
18339;DHT22;9295;44.484;11.240;2023-04-24T07:21:09;20.30;99.90
18339;DHT22;9295;44.484;11.240;2023-04-24T07:23:38;19.90;99.90
18339;DHT22;9295;44.484;11.240;2023-04-24T07:26:08;19.80;99.90
18339;DHT22;9295;44.484;11.240;2023-04-24T07:28:36;19.80;99.90
18339;DHT22;9295;44.484;11.240;2023-04-24T07:31:05;20.00;99.90
18339;DHT22;9295;44.484;11.240;2023-04-24T07:33:33;20.90;99.90
18339;DHT22;9295;44.484;11.240;2023-04-24T07:36:03;22.30;99.90
18339;DHT22;9295;44.484;11.240;2023-04-24T07:38:33;23.60;99.90
18339;DHT22;9295;44.484;11.240;2023-04-24T07:41:01;23.80;99.90
18339;DHT22;9295;44.484;11.240;2023-04-24T07:43:30;24.00;99.90
18339;DHT22;9295;44.484;11.240;2023-04-24T07:45:58;25.50;99.90
18339;DHT22;9295;44.484;11.240;2023-04-24T07:48:26;27.10;99.90
18339;DHT22;9295;44.484;11.240;2023-04-24T07:50:55;28.00;99.20
18339;DHT22;9295;44.484;11.240;2023-04-24T07:53:23;28.70;97.60
18339;DHT22;9295;44.484;11.240;2023-04-24T07:55:54;29.80;94.80
18339;DHT22;9295;44.484;11.240;2023-04-24T07:58:22;30.90;88.70
18339;DHT22;9295;44.484;11.240;2023-04-24T08:00:51;31.20;85.40
18339;DHT22;9295;44.484;11.240;2023-04-24T08:03:19;31.90;80.60
18339;DHT22;9295;44.484;11.240;2023-04-24T08:05:48;31.90;76.00
18339;DHT22;9295;44.484;11.240;2023-04-24T08:08:19;32.30;74.50
18339;DHT22;9295;44.484;11.240;2023-04-24T08:10:48;32.00;71.30
18339;DHT22;9295;44.484;11.240;2023-04-24T08:13:17;31.70;71.30
18339;DHT22;9295;44.484;11.240;2023-04-24T08:15:46;31.30;71.40
18339;DHT22;9295;44.484;11.240;2023-04-24T08:18:14;30.30;72.60
18339;DHT22;9295;44.484;11.240;2023-04-24T08:20:42;29.40;74.70
18339;DHT22;9295;44.484;11.240;2023-04-24T08:23:14;29.10;77.70
18339;DHT22;9295;44.484;11.240;2023-04-24T08:25:43;28.50;79.50
18339;DHT22;9295;44.484;11.240;2023-04-24T08:28:11;28.00;81.80
18339;DHT22;9295;44.484;11.240;2023-04-24T08:30:44;27.40;85.70
18339;DHT22;9295;44.484;11.240;2023-04-24T08:33:12;27.10;88.40
18339;DHT22;9295;44.484;11.240;2023-04-24T08:35:41;26.90;90.30
18339;DHT22;9295;44.484;11.240;2023-04-24T08:38:09;26.50;90.10
18339;DHT22;9295;44.484;11.240;2023-04-24T08:40:38;26.10;91.60
18339;DHT22;9295;44.484;11.240;2023-04-24T08:43:06;25.90;92.90
18339;DHT22;9295;44.484;11.240;2023-04-24T08:45:35;25.20;93.70
18339;DHT22;9295;44.484;11.240;2023-04-24T08:48:04;24.60;94.70
18339;DHT22;9295;44.484;11.240;2023-04-24T08:50:50;24.50;95.10
18339;DHT22;9295;44.484;11.240;2023-04-24T08:53:19;24.20;95.70
18339;DHT22;9295;44.484;11.240;2023-04-24T08:55:48;24.10;97.20
18339;DHT22;9295;44.484;11.240;2023-04-24T08:58:19;23.90;98.20
18339;DHT22;9295;44.484;11.240;2023-04-24T09:00:47;23.70;99.50
18339;DHT22;9295;44.484;11.240;2023-04-24T09:03:17;23.20;99.90
18339;DHT22;9295;44.484;11.240;2023-04-24T09:05:47;23.40;99.90
18339;DHT22;9295;44.484;11.240;2023-04-24T09:08:18;23.60;99.90
18339;DHT22;9295;44.484;11.240;2023-04-24T09:10:47;23.40;99.90
18339;DHT22;9295;44.484;11.240;2023-04-24T09:13:18;23.40;99.90
18339;DHT22;9295;44.484;11.240;2023-04-24T09:15:46;23.40;99.90
18339;DHT22;9295;44.484;11.240;2023-04-24T09:18:16;23.20;99.40
18339;DHT22;9295;44.484;11.240;2023-04-24T09:20:57;22.80;99.60
18339;DHT22;9295;44.484;11.240;2023-04-24T09:23:28;22.40;99.90
18339;DHT22;9295;44.484;11.240;2023-04-24T09:25:57;22.10;99.90
18339;DHT22;9295;44.484;11.240;2023-04-24T09:28:30;21.80;99.90
18339;DHT22;9295;44.484;11.240;2023-04-24T09:31:06;21.90;99.90
18339;DHT22;9295;44.484;11.240;2023-04-24T09:33:36;22.10;99.90
18339;DHT22;9295;44.484;11.240;2023-04-24T09:36:05;22.60;99.90
18339;DHT22;9295;44.484;11.240;2023-04-24T09:38:34;22.90;99.90
18339;DHT22;9295;44.484;11.240;2023-04-24T09:41:05;23.10;99.90
18339;DHT22;9295;44.484;11.240;2023-04-24T09:43:34;23.10;99.90
18339;DHT22;9295;44.484;11.240;2023-04-24T09:46:05;22.60;99.90
18339;DHT22;9295;44.484;11.240;2023-04-24T09:48:36;22.50;99.90
18339;DHT22;9295;44.484;11.240;2023-04-24T09:51:06;22.40;99.90
18339;DHT22;9295;44.484;11.240;2023-04-24T09:53:37;22.20;99.90
18339;DHT22;9295;44.484;11.240;2023-04-24T09:56:11;22.30;99.90
18339;DHT22;9295;44.484;11.240;2023-04-24T09:58:40;22.40;99.90
18339;DHT22;9295;44.484;11.240;2023-04-24T10:01:08;22.70;99.90
18339;DHT22;9295;44.484;11.240;2023-04-24T10:03:42;22.90;99.90
18339;DHT22;9295;44.484;11.240;2023-04-24T10:06:12;23.20;99.90
18339;DHT22;9295;44.484;11.240;2023-04-24T10:08:40;23.40;99.90
18339;DHT22;9295;44.484;11.240;2023-04-24T10:11:09;22.90;99.90
18339;DHT22;9295;44.484;11.240;2023-04-24T10:13:39;22.80;99.90
18339;DHT22;9295;44.484;11.240;2023-04-24T10:16:08;22.80;99.90
18339;DHT22;9295;44.484;11.240;2023-04-24T10:18:39;23.00;99.90
18339;DHT22;9295;44.484;11.240;2023-04-24T10:21:07;22.90;99.90
18339;DHT22;9295;44.484;11.240;2023-04-24T10:23:36;22.80;99.90
18339;DHT22;9295;44.484;11.240;2023-04-24T10:26:05;22.90;99.90
18339;DHT22;9295;44.484;11.240;2023-04-24T10:28:36;23.10;99.90
18339;DHT22;9295;44.484;11.240;2023-04-24T10:31:04;23.00;99.90
18339;DHT22;9295;44.484;11.240;2023-04-24T10:33:33;23.00;99.90
18339;DHT22;9295;44.484;11.240;2023-04-24T10:36:04;23.00;99.90
18339;DHT22;9295;44.484;11.240;2023-04-24T10:38:34;22.80;99.90
18339;DHT22;9295;44.484;11.240;2023-04-24T10:41:10;22.60;99.90
18339;DHT22;9295;44.484;11.240;2023-04-24T10:43:43;22.50;99.90
18339;DHT22;9295;44.484;11.240;2023-04-24T10:46:19;22.30;99.90
18339;DHT22;9295;44.484;11.240;2023-04-24T10:48:52;22.20;99.90
18339;DHT22;9295;44.484;11.240;2023-04-24T10:51:23;22.20;99.90
18339;DHT22;9295;44.484;11.240;2023-04-24T10:53:52;22.20;99.90
18339;DHT22;9295;44.484;11.240;2023-04-24T10:56:21;22.20;99.90
18339;DHT22;9295;44.484;11.240;2023-04-24T10:58:51;22.20;99.90
18339;DHT22;9295;44.484;11.240;2023-04-24T11:01:24;22.10;99.90
18339;DHT22;9295;44.484;11.240;2023-04-24T11:03:55;21.90;99.90
18339;DHT22;9295;44.484;11.240;2023-04-24T11:06:32;21.90;99.90
18339;DHT22;9295;44.484;11.240;2023-04-24T11:09:04;21.80;99.90
18339;DHT22;9295;44.484;11.240;2023-04-24T11:11:34;21.90;99.90
18339;DHT22;9295;44.484;11.240;2023-04-24T11:14:08;21.90;99.90
18339;DHT22;9295;44.484;11.240;2023-04-24T11:16:41;21.90;99.90
18339;DHT22;9295;44.484;11.240;2023-04-24T11:19:21;21.90;99.90
18339;DHT22;9295;44.484;11.240;2023-04-24T11:21:58;22.10;99.90
18339;DHT22;9295;44.484;11.240;2023-04-24T11:24:29;22.30;99.90
18339;DHT22;9295;44.484;11.240;2023-04-24T11:27:01;22.40;99.90
18339;DHT22;9295;44.484;11.240;2023-04-24T11:29:44;22.30;99.90
18339;DHT22;9295;44.484;11.240;2023-04-24T11:32:17;22.30;99.90
18339;DHT22;9295;44.484;11.240;2023-04-24T11:34:48;22.30;99.90
18339;DHT22;9295;44.484;11.240;2023-04-24T11:37:18;22.40;99.90
18339;DHT22;9295;44.484;11.240;2023-04-24T11:39:47;22.70;99.90
18339;DHT22;9295;44.484;11.240;2023-04-24T11:42:18;22.70;99.90
18339;DHT22;9295;44.484;11.240;2023-04-24T11:44:48;22.70;99.90
18339;DHT22;9295;44.484;11.240;2023-04-24T11:47:17;22.70;99.90
18339;DHT22;9295;44.484;11.240;2023-04-24T11:49:45;22.60;99.90
18339;DHT22;9295;44.484;11.240;2023-04-24T11:52:15;22.60;99.90
18339;DHT22;9295;44.484;11.240;2023-04-24T11:54:49;22.50;99.90
18339;DHT22;9295;44.484;11.240;2023-04-24T11:57:19;22.40;99.90
18339;DHT22;9295;44.484;11.240;2023-04-24T11:59:49;22.20;99.90
18339;DHT22;9295;44.484;11.240;2023-04-24T12:02:24;22.10;99.90
18339;DHT22;9295;44.484;11.240;2023-04-24T12:04:53;22.10;99.90
18339;DHT22;9295;44.484;11.240;2023-04-24T12:07:23;22.10;99.90
18339;DHT22;9295;44.484;11.240;2023-04-24T12:09:57;22.10;99.90
18339;DHT22;9295;44.484;11.240;2023-04-24T12:12:28;22.10;99.90
18339;DHT22;9295;44.484;11.240;2023-04-24T12:14:57;22.10;99.90
18339;DHT22;9295;44.484;11.240;2023-04-24T12:17:29;22.10;99.90
18339;DHT22;9295;44.484;11.240;2023-04-24T12:19:59;22.20;99.90
18339;DHT22;9295;44.484;11.240;2023-04-24T12:22:43;22.20;99.90
18339;DHT22;9295;44.484;11.240;2023-04-24T12:25:15;22.30;99.90
18339;DHT22;9295;44.484;11.240;2023-04-24T12:27:44;22.40;99.90
18339;DHT22;9295;44.484;11.240;2023-04-24T12:30:13;22.50;99.90
18339;DHT22;9295;44.484;11.240;2023-04-24T12:32:43;22.60;99.90
18339;DHT22;9295;44.484;11.240;2023-04-24T12:35:12;22.80;99.90
18339;DHT22;9295;44.484;11.240;2023-04-24T12:37:43;23.00;99.90
18339;DHT22;9295;44.484;11.240;2023-04-24T12:40:15;23.10;99.90
18339;DHT22;9295;44.484;11.240;2023-04-24T12:42:45;23.00;99.90
18339;DHT22;9295;44.484;11.240;2023-04-24T12:45:15;23.10;99.90
18339;DHT22;9295;44.484;11.240;2023-04-24T12:47:44;23.20;99.90
18339;DHT22;9295;44.484;11.240;2023-04-24T12:50:14;23.20;99.90
18339;DHT22;9295;44.484;11.240;2023-04-24T12:52:44;23.30;99.90
18339;DHT22;9295;44.484;11.240;2023-04-24T12:55:12;23.30;99.90
18339;DHT22;9295;44.484;11.240;2023-04-24T12:57:42;23.40;99.90
18339;DHT22;9295;44.484;11.240;2023-04-24T13:00:11;23.20;99.90
18339;DHT22;9295;44.484;11.240;2023-04-24T13:02:39;22.90;99.90
18339;DHT22;9295;44.484;11.240;2023-04-24T13:05:08;22.90;99.90
18339;DHT22;9295;44.484;11.240;2023-04-24T13:07:38;23.00;99.90
18339;DHT22;9295;44.484;11.240;2023-04-24T13:10:08;23.10;99.90
18339;DHT22;9295;44.484;11.240;2023-04-24T13:12:36;23.00;99.90
18339;DHT22;9295;44.484;11.240;2023-04-24T13:15:08;23.10;99.70
18339;DHT22;9295;44.484;11.240;2023-04-24T13:17:36;23.20;99.50
18339;DHT22;9295;44.484;11.240;2023-04-24T13:20:05;23.30;99.80
18339;DHT22;9295;44.484;11.240;2023-04-24T13:22:34;23.40;99.90
18339;DHT22;9295;44.484;11.240;2023-04-24T13:25:02;23.50;99.90
18339;DHT22;9295;44.484;11.240;2023-04-24T13:27:33;23.60;99.70
18339;DHT22;9295;44.484;11.240;2023-04-24T13:30:02;23.40;99.30
18339;DHT22;9295;44.484;11.240;2023-04-24T13:32:33;23.30;99.90
18339;DHT22;9295;44.484;11.240;2023-04-24T13:35:03;23.50;99.80
18339;DHT22;9295;44.484;11.240;2023-04-24T13:37:32;23.60;98.90
18339;DHT22;9295;44.484;11.240;2023-04-24T13:40:00;23.70;97.80
18339;DHT22;9295;44.484;11.240;2023-04-24T13:42:29;23.60;97.90
18339;DHT22;9295;44.484;11.240;2023-04-24T13:44:57;23.50;98.00
18339;DHT22;9295;44.484;11.240;2023-04-24T13:47:27;23.70;98.10
18339;DHT22;9295;44.484;11.240;2023-04-24T13:49:56;23.80;97.80
18339;DHT22;9295;44.484;11.240;2023-04-24T13:52:25;23.80;97.70
18339;DHT22;9295;44.484;11.240;2023-04-24T13:54:54;23.80;97.70
18339;DHT22;9295;44.484;11.240;2023-04-24T13:57:22;23.90;97.70
18339;DHT22;9295;44.484;11.240;2023-04-24T13:59:51;23.90;96.20
18339;DHT22;9295;44.484;11.240;2023-04-24T14:02:19;23.70;96.60
18339;DHT22;9295;44.484;11.240;2023-04-24T14:04:48;23.70;95.80
18339;DHT22;9295;44.484;11.240;2023-04-24T14:07:18;23.50;95.90
18339;DHT22;9295;44.484;11.240;2023-04-24T14:09:46;23.40;96.40
18339;DHT22;9295;44.484;11.240;2023-04-24T14:12:14;23.30;96.90
18339;DHT22;9295;44.484;11.240;2023-04-24T14:14:46;23.40;97.50
18339;DHT22;9295;44.484;11.240;2023-04-24T14:17:15;23.40;97.60
18339;DHT22;9295;44.484;11.240;2023-04-24T14:19:43;23.50;97.50
18339;DHT22;9295;44.484;11.240;2023-04-24T14:22:12;23.70;97.00
18339;DHT22;9295;44.484;11.240;2023-04-24T14:24:42;23.70;96.60
18339;DHT22;9295;44.484;11.240;2023-04-24T14:27:10;23.80;96.60
18339;DHT22;9295;44.484;11.240;2023-04-24T14:29:38;23.90;96.50
18339;DHT22;9295;44.484;11.240;2023-04-24T14:32:07;24.00;96.50
18339;DHT22;9295;44.484;11.240;2023-04-24T14:34:36;24.00;96.40
18339;DHT22;9295;44.484;11.240;2023-04-24T14:37:05;24.10;95.90
18339;DHT22;9295;44.484;11.240;2023-04-24T14:39:33;23.90;95.30
18339;DHT22;9295;44.484;11.240;2023-04-24T14:42:03;23.80;95.60
18339;DHT22;9295;44.484;11.240;2023-04-24T14:44:31;23.80;95.90
18339;DHT22;9295;44.484;11.240;2023-04-24T14:47:00;23.90;96.00
18339;DHT22;9295;44.484;11.240;2023-04-24T14:49:28;23.90;96.30
18339;DHT22;9295;44.484;11.240;2023-04-24T14:51:57;24.00;96.50
18339;DHT22;9295;44.484;11.240;2023-04-24T14:54:25;24.20;96.50
18339;DHT22;9295;44.484;11.240;2023-04-24T14:56:54;24.40;96.20
18339;DHT22;9295;44.484;11.240;2023-04-24T14:59:25;24.30;96.10
18339;DHT22;9295;44.484;11.240;2023-04-24T15:01:53;24.20;96.30
18339;DHT22;9295;44.484;11.240;2023-04-24T15:04:41;24.10;96.40
18339;DHT22;9295;44.484;11.240;2023-04-24T15:07:10;24.10;96.50
18339;DHT22;9295;44.484;11.240;2023-04-24T15:09:38;24.20;96.90
18339;DHT22;9295;44.484;11.240;2023-04-24T15:12:07;24.30;97.00
18339;DHT22;9295;44.484;11.240;2023-04-24T15:14:38;24.30;96.70
18339;DHT22;9295;44.484;11.240;2023-04-24T15:17:06;24.30;97.10
18339;DHT22;9295;44.484;11.240;2023-04-24T15:19:35;24.40;97.20
18339;DHT22;9295;44.484;11.240;2023-04-24T15:22:03;24.50;97.20
18339;DHT22;9295;44.484;11.240;2023-04-24T15:24:31;24.60;96.80
18339;DHT22;9295;44.484;11.240;2023-04-24T15:27:00;24.80;96.20
18339;DHT22;9295;44.484;11.240;2023-04-24T15:29:29;24.90;96.20
18339;DHT22;9295;44.484;11.240;2023-04-24T15:31:58;25.00;96.30
18339;DHT22;9295;44.484;11.240;2023-04-24T15:34:27;25.00;96.30
18339;DHT22;9295;44.484;11.240;2023-04-24T15:36:55;25.00;95.20
18339;DHT22;9295;44.484;11.240;2023-04-24T15:39:24;24.80;95.20
18339;DHT22;9295;44.484;11.240;2023-04-24T15:41:52;24.60;94.80
18339;DHT22;9295;44.484;11.240;2023-04-24T15:44:21;24.30;95.00
18339;DHT22;9295;44.484;11.240;2023-04-24T15:46:50;24.20;95.90
18339;DHT22;9295;44.484;11.240;2023-04-24T15:49:23;24.20;96.40